Stacja Pogody Warszawa Praga Północ 


Stacja Pogody
Warszawa Praga Północ

 Szerokość N 52° 15 '43"    Długość E 21° 01' 22"    Wysokość 89 m n.p.m.


Wschód Słońca 05:20 Górowanie Słońca 12:34 Zachód Słońca 19:47 byk
Data juliańska 2456772.382 Odległość Słońca 150461415 km Średn. kątowa Słońca 0,318°
Wschód Księżyca 03:01 Zachód Księżyca 14:06 Wiek Księżyca 25 dni Moon
Widoczność Księżyca 22,14% Odległość Księżyca 366180 km Średn. kątowa Księżyca 0,326°
Dzień krótszy od najdłuższego o: 02:18 Długość dnia 14:27 Imieniny Horacego, Feliksa, Grzegorza




Warunki pogodowe uaktualnione 24-04-2014, o godzinie 20:51
Temperatura 16.7 °C ↓ Temperatura odczuwalna 14.5 °C
Punkt rosy 4.7 °C Humidex 15.9 °C
Deszcz na godzinę 0.0 mm Wilgotność względna 45% ↑
Prędkość wiatru (średnia) 1 km/h → Prędkość wiatru (podmuch) 5 km/h
Kierunek wiatru S Skala Beaufort'a 1
Ciśnienie względne  1021 hPa Trend ciśnienia powolny wzrost
Ciśnienie bezwzględne  1008 hPa Podstawa chmur 1553.4 m
METAR EPWA 241900Z 08007KT CAVOK 14/05 Q1021 NOSIG
TAF TAF EPWA 241730Z 2418/2518 08010KT CAVOK





 a

Valid XHTML 1.0 Transitional Valid CSS!